Time;durP1;ratioP1;P1;durP2;ratioP2;P2;SDS_P1;SDS_P2;PMS_P1;PMS_P2;Temp;Humidity;BMP_temperature;BMP_pressure;BME280_temperature;BME280_humidity;BME280_pressure;Samples;Min_cycle;Max_cycle;Signal;HPM_P1;HPM_P2
2024/01/24 00:00:04;;;;;;;2.78;0.50;;;13.30;99.90;;;;;;5116555;28;20018;-51
2024/01/24 00:02:30;;;;;;;0.30;0.30;;;13.30;99.90;;;;;;5116214;28;20019;-54
2024/01/24 00:04:56;;;;;;;5.30;0.60;;;13.20;99.90;;;;;;5115002;28;20042;-53
2024/01/24 00:07:21;;;;;;;1.88;0.38;;;13.20;99.90;;;;;;5116450;28;20023;-55
2024/01/24 00:09:47;;;;;;;1.05;0.55;;;13.20;99.90;;;;;;5116278;28;20091;-53
2024/01/24 00:12:12;;;;;;;0.50;0.50;;;13.20;99.90;;;;;;5116230;28;20027;-54
2024/01/24 00:14:38;;;;;;;1.00;0.70;;;13.20;99.90;;;;;;5114915;28;20043;-54
2024/01/24 00:17:05;;;;;;;1.27;0.60;;;13.10;99.90;;;;;;5115923;28;20137;-59
2024/01/24 00:19:30;;;;;;;0.80;0.40;;;13.10;99.90;;;;;;5116026;28;20495;-57
2024/01/24 00:21:56;;;;;;;1.73;0.77;;;13.00;99.90;;;;;;5114707;28;20023;-54
2024/01/24 00:24:22;;;;;;;2.95;0.60;;;13.00;99.90;;;;;;5099734;28;20039;-55
2024/01/24 00:26:47;;;;;;;2.42;0.85;;;12.90;99.90;;;;;;5095343;28;20020;-55
2024/01/24 00:29:13;;;;;;;0.70;0.70;;;12.80;99.90;;;;;;5111824;28;20100;-53
2024/01/24 00:31:39;;;;;;;9.27;0.88;;;12.90;99.90;;;;;;5106017;28;20043;-55
2024/01/24 00:34:04;;;;;;;0.55;0.45;;;12.80;99.90;;;;;;5095494;28;20024;-54
2024/01/24 00:36:30;;;;;;;0.80;0.75;;;12.80;99.90;;;;;;5095170;28;20024;-56
2024/01/24 00:38:55;;;;;;;4.68;1.45;;;12.70;99.90;;;;;;5095085;28;20024;-57
2024/01/24 00:41:21;;;;;;;4.10;0.85;;;12.70;99.90;;;;;;5093901;28;20585;-55
2024/01/24 00:43:47;;;;;;;6.72;0.82;;;12.70;99.90;;;;;;5095056;28;20488;-55
2024/01/24 00:46:12;;;;;;;0.85;0.82;;;12.70;99.90;;;;;;5095048;28;20404;-55
2024/01/24 00:48:38;;;;;;;1.67;0.75;;;12.60;99.90;;;;;;5095427;28;20442;-63
2024/01/24 00:51:04;;;;;;;2.90;0.98;;;12.60;99.90;;;;;;5094966;28;20047;-56
2024/01/24 00:53:32;;;;;;;1.10;1.00;;;12.60;99.90;;;;;;5093600;28;20028;-55
2024/01/24 00:55:58;;;;;;;5.35;0.95;;;12.50;99.90;;;;;;5094810;28;20107;-56
2024/01/24 00:58:24;;;;;;;2.72;1.13;;;12.60;99.90;;;;;;5094692;28;20154;-56
2024/01/24 01:00:50;;;;;;;3.03;0.90;;;12.50;99.90;;;;;;5094420;28;20020;-55
2024/01/24 01:03:16;;;;;;;2.30;1.27;;;12.60;99.90;;;;;;5094384;28;20380;-53
2024/01/24 01:05:42;;;;;;;3.40;0.82;;;12.60;99.90;;;;;;5095375;28;20016;-55
2024/01/24 01:08:07;;;;;;;3.70;1.00;;;12.50;99.90;;;;;;5094553;28;20446;-53
2024/01/24 01:10:33;;;;;;;6.90;1.02;;;12.50;99.90;;;;;;5094378;28;20102;-54
2024/01/24 01:12:59;;;;;;;0.95;0.45;;;12.50;99.90;;;;;;5094405;28;20039;-49
2024/01/24 01:15:25;;;;;;;0.60;0.60;;;12.40;99.90;;;;;;5094090;28;20055;-51
2024/01/24 01:17:51;;;;;;;1.10;0.82;;;12.50;99.90;;;;;;5094386;28;20028;-53
2024/01/24 01:20:19;;;;;;;0.52;0.52;;;12.40;99.90;;;;;;5094325;28;20051;-52
2024/01/24 01:22:47;;;;;;;1.67;0.80;;;12.40;99.90;;;;;;5099452;27;20472;-49
2024/01/24 01:25:13;;;;;;;3.92;0.80;;;12.40;99.90;;;;;;5130071;27;20039;-53
2024/01/24 01:27:40;;;;;;;2.20;0.93;;;12.40;99.90;;;;;;5111196;28;20032;-53
2024/01/24 01:30:06;;;;;;;1.48;0.65;;;12.40;99.90;;;;;;5094490;28;20412;-51
2024/01/24 01:32:32;;;;;;;2.63;0.77;;;12.40;99.90;;;;;;5094341;28;20532;-58
2024/01/24 01:34:59;;;;;;;7.35;0.73;;;12.40;99.90;;;;;;5094085;28;20028;-55
2024/01/24 01:37:25;;;;;;;0.75;0.75;;;12.40;99.90;;;;;;5094226;28;20537;-54
2024/01/24 01:39:51;;;;;;;1.00;0.50;;;12.40;99.90;;;;;;5094538;28;20016;-54
2024/01/24 01:42:16;;;;;;;3.05;1.42;;;12.40;99.90;;;;;;5093925;28;20031;-52
2024/01/24 01:44:46;;;;;;;7.90;0.80;;;12.50;99.90;;;;;;5094141;28;20496;-51
2024/01/24 01:47:16;;;;;;;3.72;0.90;;;12.50;99.90;;;;;;5093871;28;20035;-55
2024/01/24 01:49:45;;;;;;;0.63;0.63;;;12.50;99.90;;;;;;5093702;28;20031;-49
2024/01/24 01:52:11;;;;;;;0.60;0.60;;;12.50;99.90;;;;;;5093732;28;20495;-52
2024/01/24 01:54:42;;;;;;;2.42;0.55;;;12.60;99.90;;;;;;5093756;28;20508;-54
2024/01/24 01:57:10;;;;;;;4.05;0.80;;;12.60;99.90;;;;;;5094310;28;20032;-54
2024/01/24 01:59:37;;;;;;;2.55;0.70;;;12.70;99.90;;;;;;5092233;28;20020;-54
2024/01/24 02:02:04;;;;;;;1.55;1.15;;;12.70;99.90;;;;;;5093554;28;20039;-53
2024/01/24 02:04:30;;;;;;;4.13;1.00;;;12.70;99.90;;;;;;5093009;28;20488;-52
2024/01/24 02:06:56;;;;;;;5.03;0.90;;;12.70;99.90;;;;;;5092681;28;20020;-40
2024/01/24 02:09:25;;;;;;;3.05;0.70;;;12.80;99.90;;;;;;5093299;28;20097;-37
2024/01/24 02:11:50;;;;;;;3.70;0.73;;;12.80;99.90;;;;;;5093668;28;20547;-37
2024/01/24 02:14:16;;;;;;;7.30;1.30;;;12.70;99.90;;;;;;5093558;28;20111;-37
2024/01/24 02:16:42;;;;;;;2.17;0.95;;;12.70;99.90;;;;;;5093395;28;20396;-54
2024/01/24 02:19:08;;;;;;;11.68;0.90;;;12.80;99.90;;;;;;5093117;28;20028;-55
2024/01/24 02:21:33;;;;;;;2.60;0.68;;;12.70;99.90;;;;;;5091978;28;20396;-56
2024/01/24 02:24:00;;;;;;;6.68;1.60;;;12.70;99.90;;;;;;5117465;27;20421;-56
2024/01/24 02:26:25;;;;;;;7.30;0.70;;;12.70;99.90;;;;;;5105826;27;20540;-38
2024/01/24 02:28:51;;;;;;;0.63;0.47;;;12.70;99.90;;;;;;5093127;28;20059;-39
2024/01/24 02:31:17;;;;;;;6.47;1.15;;;12.80;99.90;;;;;;5093109;28;20415;-38
2024/01/24 02:33:43;;;;;;;5.55;1.08;;;12.80;99.90;;;;;;5092815;28;20158;-42
2024/01/24 02:36:15;;;;;;;5.15;0.52;;;12.80;99.90;;;;;;5092860;28;20031;-38
2024/01/24 02:38:43;;;;;;;4.60;0.90;;;12.80;99.90;;;;;;5093009;28;20622;-37
2024/01/24 02:41:09;;;;;;;4.85;0.85;;;12.80;99.90;;;;;;5092768;28;20541;-40
2024/01/24 02:43:35;;;;;;;3.20;0.63;;;12.70;99.90;;;;;;5092976;28;20095;-38
2024/01/24 02:46:01;;;;;;;7.50;0.70;;;12.70;99.90;;;;;;5092908;28;20115;-53
2024/01/24 02:48:27;;;;;;;4.55;1.35;;;12.70;99.90;;;;;;5092870;28;20035;-55
2024/01/24 02:50:54;;;;;;;7.78;1.30;;;12.70;99.90;;;;;;5093101;28;20380;-54
2024/01/24 02:53:20;;;;;;;4.28;1.33;;;12.70;99.90;;;;;;5093104;28;20476;-55
2024/01/24 02:55:46;;;;;;;6.38;0.70;;;12.70;99.90;;;;;;5092814;28;20095;-54
2024/01/24 02:58:12;;;;;;;6.35;1.00;;;12.60;99.90;;;;;;5092961;28;20601;-53
2024/01/24 03:00:37;;;;;;;9.68;1.00;;;12.60;99.90;;;;;;5092762;28;20023;-55
2024/01/24 03:03:04;;;;;;;5.45;1.00;;;12.60;99.90;;;;;;5092981;28;20377;-55
2024/01/24 03:05:29;;;;;;;6.47;0.95;;;12.60;99.90;;;;;;5092737;28;20032;-55
2024/01/24 03:07:57;;;;;;;3.40;0.88;;;12.50;99.90;;;;;;5092592;28;20388;-54
2024/01/24 03:10:25;;;;;;;;;;;12.50;99.90;;;;;;5093114;28;20547;-54
2024/01/24 03:12:51;;;;;;;10.85;1.55;;;12.50;99.90;;;;;;5092622;28;19987;-54
2024/01/24 03:15:16;;;;;;;5.45;0.90;;;12.50;99.90;;;;;;5092426;28;20132;-52
2024/01/24 03:18:01;;;;;;;7.97;1.80;;;12.50;99.90;;;;;;5092834;28;20027;-55
2024/01/24 03:20:27;;;;;;;6.28;0.93;;;12.50;99.90;;;;;;5093185;28;20099;-63
2024/01/24 03:22:52;;;;;;;7.75;1.13;;;12.50;99.90;;;;;;5092550;28;20051;-55
2024/01/24 03:25:18;;;;;;;8.52;1.77;;;12.40;99.90;;;;;;5094178;28;20019;-51
2024/01/24 03:27:44;;;;;;;12.77;1.73;;;12.40;99.90;;;;;;5096769;28;20382;-53
2024/01/24 03:30:10;;;;;;;14.85;1.65;;;12.40;99.90;;;;;;5096497;28;20049;-55
2024/01/24 03:32:36;;;;;;;6.13;1.15;;;12.40;99.90;;;;;;5096350;28;20071;-39
2024/01/24 03:35:02;;;;;;;9.18;2.22;;;12.40;99.90;;;;;;5095230;28;20024;-52
2024/01/24 03:37:27;;;;;;;7.53;1.42;;;12.40;99.90;;;;;;5095040;28;20024;-38
2024/01/24 03:39:53;;;;;;;9.98;1.70;;;12.40;99.90;;;;;;5096503;28;20020;-40
2024/01/24 03:42:19;;;;;;;17.85;2.58;;;12.40;99.90;;;;;;5096301;28;20024;-38
2024/01/24 03:44:44;;;;;;;9.98;1.38;;;12.30;99.90;;;;;;5096207;28;20047;-38
2024/01/24 03:47:10;;;;;;;16.13;1.50;;;12.30;99.90;;;;;;5096213;28;20095;-41
2024/01/24 03:49:36;;;;;;;9.90;2.78;;;12.20;99.90;;;;;;5094796;28;20518;-40
2024/01/24 03:52:02;;;;;;;14.23;2.08;;;12.20;99.90;;;;;;5095963;28;20032;-41
2024/01/24 03:54:28;;;;;;;20.33;2.75;;;12.20;99.90;;;;;;5096347;28;20111;-44
2024/01/24 03:56:53;;;;;;;16.63;3.05;;;12.20;99.90;;;;;;5095830;28;20538;-40
2024/01/24 03:59:19;;;;;;;11.68;2.10;;;12.10;99.90;;;;;;5095750;28;20111;-41
2024/01/24 04:01:44;;;;;;;12.73;2.25;;;12.10;99.90;;;;;;5095819;28;20034;-40
2024/01/24 04:04:10;;;;;;;13.65;2.50;;;12.00;99.90;;;;;;5095818;28;20161;-44
2024/01/24 04:06:36;;;;;;;15.23;3.20;;;11.90;99.90;;;;;;5095734;28;20412;-41
2024/01/24 04:09:03;;;;;;;26.52;4.75;;;11.80;99.90;;;;;;5095723;28;20103;-41
2024/01/24 04:11:29;;;;;;;15.23;2.45;;;11.80;99.90;;;;;;5095708;28;20032;-40
2024/01/24 04:13:54;;;;;;;21.70;2.92;;;11.80;99.90;;;;;;5095602;28;20077;-39
2024/01/24 04:16:20;;;;;;;25.25;2.13;;;11.70;99.90;;;;;;5094117;28;20522;-41
2024/01/24 04:18:46;;;;;;;14.52;2.20;;;11.70;99.90;;;;;;5095459;28;20073;-39
2024/01/24 04:21:12;;;;;;;17.92;3.63;;;11.70;99.90;;;;;;5095464;28;20024;-50
2024/01/24 04:23:38;;;;;;;23.08;3.10;;;11.70;99.90;;;;;;5095430;28;20469;-52
2024/01/24 04:26:04;;;;;;;17.15;2.50;;;11.60;99.90;;;;;;5095296;28;20027;-53
2024/01/24 04:28:31;;;;;;;12.43;2.10;;;11.60;99.90;;;;;;5095357;28;20054;-53
2024/01/24 04:30:56;;;;;;;24.00;4.00;;;11.60;99.90;;;;;;5095294;28;20028;-55
2024/01/24 04:33:22;;;;;;;25.55;3.65;;;11.60;99.90;;;;;;5095257;28;20366;-43
2024/01/24 04:35:48;;;;;;;13.85;2.33;;;11.60;99.90;;;;;;5094575;28;20811;-39
2024/01/24 04:38:13;;;;;;;23.35;3.55;;;11.50;99.90;;;;;;5094428;28;20027;-68
2024/01/24 04:40:39;;;;;;;28.13;3.05;;;11.50;99.90;;;;;;5095367;28;20468;-46
2024/01/24 04:43:07;;;;;;;20.40;3.30;;;11.50;99.90;;;;;;5095094;28;20078;-45
2024/01/24 04:45:32;;;;;;;29.77;3.20;;;11.50;99.90;;;;;;5095442;28;20529;-40
2024/01/24 04:48:01;;;;;;;26.17;3.65;;;11.60;99.90;;;;;;5094950;28;20028;-41
2024/01/24 04:50:26;;;;;;;16.50;2.42;;;11.60;99.90;;;;;;5094945;28;20032;-39
2024/01/24 04:52:52;;;;;;;34.95;4.18;;;11.50;99.90;;;;;;5094845;28;20500;-38
2024/01/24 04:55:18;;;;;;;27.55;3.45;;;11.50;99.90;;;;;;5094845;28;20374;-43
2024/01/24 04:57:44;;;;;;;25.08;2.70;;;11.40;99.90;;;;;;5094709;28;20028;-47
2024/01/24 05:00:11;;;;;;;26.83;3.15;;;11.40;99.90;;;;;;5094786;28;20472;-38
2024/01/24 05:02:38;;;;;;;30.63;4.07;;;11.40;99.90;;;;;;5094999;28;20488;-43
2024/01/24 05:05:07;;;;;;;35.65;3.67;;;11.40;99.90;;;;;;5094624;28;20502;-39
2024/01/24 05:07:35;;;;;;;19.63;3.47;;;11.40;99.90;;;;;;5094626;28;20392;-40
2024/01/24 05:10:03;;;;;;;29.05;3.63;;;11.30;99.90;;;;;;5094828;28;20507;-55
2024/01/24 05:12:29;;;;;;;26.80;3.13;;;11.30;99.90;;;;;;5093252;28;20051;-41
2024/01/24 05:14:55;;;;;;;27.17;2.97;;;11.40;99.90;;;;;;5094232;28;20044;-39
2024/01/24 05:17:21;;;;;;;26.45;2.90;;;11.40;99.90;;;;;;5094432;28;20077;-44
2024/01/24 05:19:46;;;;;;;21.00;2.88;;;11.40;99.90;;;;;;5094258;28;20480;-42
2024/01/24 05:22:13;;;;;;;24.98;4.53;;;11.40;99.90;;;;;;5094296;28;20020;-46
2024/01/24 05:24:38;;;;;;;28.52;4.07;;;11.40;99.90;;;;;;5094514;28;20069;-63
2024/01/24 05:27:05;;;;;;;21.48;3.65;;;11.40;99.90;;;;;;5094075;28;20476;-42
2024/01/24 05:29:31;;;;;;;28.73;3.53;;;11.30;99.90;;;;;;5094162;28;20159;-41
2024/01/24 05:31:56;;;;;;;24.67;3.80;;;11.30;99.90;;;;;;5094094;28;20102;-43
2024/01/24 05:34:22;;;;;;;23.20;3.25;;;11.30;99.90;;;;;;5092809;28;20120;-39
2024/01/24 05:36:48;;;;;;;27.33;4.32;;;11.30;99.90;;;;;;5093960;28;20099;-44
2024/01/24 05:39:15;;;;;;;30.15;4.63;;;11.30;99.90;;;;;;5093872;28;20142;-39
2024/01/24 05:41:41;;;;;;;31.08;3.42;;;11.30;99.90;;;;;;5092612;28;20031;-41
2024/01/24 05:44:07;;;;;;;32.80;4.43;;;11.30;99.90;;;;;;5094135;28;20476;-39
2024/01/24 05:46:32;;;;;;;23.20;3.30;;;11.30;99.90;;;;;;5093835;28;20020;-41
2024/01/24 05:49:00;;;;;;;25.17;4.25;;;11.20;99.90;;;;;;5093308;28;20030;-54
2024/01/24 05:51:26;;;;;;;49.63;4.60;;;11.20;99.90;;;;;;5092519;28;20028;-54
2024/01/24 05:53:51;;;;;;;30.38;4.40;;;11.20;99.90;;;;;;5093660;28;20043;-55
2024/01/24 05:56:17;;;;;;;22.40;3.70;;;11.10;99.90;;;;;;5093750;28;20054;-56
2024/01/24 05:58:42;;;;;;;30.17;4.32;;;11.10;99.90;;;;;;5093850;28;20024;-54
2024/01/24 06:01:08;;;;;;;32.67;4.10;;;11.20;99.90;;;;;;5093535;28;20039;-55
2024/01/24 06:03:34;;;;;;;29.40;4.03;;;11.10;99.90;;;;;;5093532;28;20081;-62
2024/01/24 06:06:01;;;;;;;46.38;4.70;;;11.10;99.90;;;;;;5093734;28;20537;-58
2024/01/24 06:08:27;;;;;;;34.63;3.83;;;11.00;99.90;;;;;;5093661;28;20028;-55
2024/01/24 06:10:52;;;;;;;23.00;4.22;;;10.90;99.90;;;;;;5093419;28;20028;-56
2024/01/24 06:13:18;;;;;;;22.00;4.15;;;10.90;99.90;;;;;;5093345;28;20035;-53
2024/01/24 06:15:43;;;;;;;26.40;4.38;;;10.90;99.90;;;;;;5093076;28;20435;-52
2024/01/24 06:18:09;;;;;;;32.67;4.70;;;10.90;99.90;;;;;;5093248;28;20020;-46
2024/01/24 06:20:35;;;;;;;24.77;3.72;;;10.90;99.90;;;;;;5093280;28;20091;-43
2024/01/24 06:23:00;;;;;;;28.08;5.03;;;10.90;99.90;;;;;;5093232;28;20392;-46
2024/01/24 06:25:26;;;;;;;22.23;3.13;;;10.90;99.90;;;;;;5093080;28;20066;-41
2024/01/24 06:27:52;;;;;;;29.67;3.78;;;10.80;99.90;;;;;;5093086;28;20028;-45
2024/01/24 06:30:17;;;;;;;32.70;4.45;;;10.80;99.90;;;;;;5093286;28;20020;-43
2024/01/24 06:32:43;;;;;;;21.50;3.60;;;10.80;99.90;;;;;;5093052;28;20027;-37
2024/01/24 06:35:09;;;;;;;28.67;5.70;;;10.80;99.90;;;;;;5093040;28;20028;-50
2024/01/24 06:37:37;;;;;;;36.00;4.68;;;10.70;99.90;;;;;;5093171;28;20032;-41
2024/01/24 06:40:05;;;;;;;29.83;4.03;;;10.70;99.90;;;;;;5092962;28;20040;-42
2024/01/24 06:42:31;;;;;;;32.80;4.82;;;10.70;99.90;;;;;;5092953;28;20465;-41
2024/01/24 06:44:56;;;;;;;32.42;6.00;;;10.60;99.90;;;;;;5092892;28;20016;-40
2024/01/24 06:47:22;;;;;;;25.58;3.78;;;10.60;99.90;;;;;;5093197;28;20031;-42
2024/01/24 06:49:48;;;;;;;36.78;5.53;;;10.60;99.90;;;;;;5092721;28;20388;-42
2024/01/24 06:52:13;;;;;;;43.33;5.20;;;10.50;99.90;;;;;;5092825;28;20077;-42
2024/01/24 06:54:39;;;;;;;41.25;4.43;;;10.50;99.90;;;;;;5093102;28;20020;-41
2024/01/24 06:57:04;;;;;;;35.28;5.50;;;10.50;99.90;;;;;;5092715;28;20063;-49
2024/01/24 06:59:31;;;;;;;37.80;4.63;;;10.50;99.90;;;;;;5093122;28;20027;-39
2024/01/24 07:01:58;;;;;;;38.92;4.45;;;10.40;99.90;;;;;;5097330;28;20031;-42
2024/01/24 07:04:24;;;;;;;20.55;4.50;;;10.30;99.90;;;;;;5097236;28;20024;-44
2024/01/24 07:06:50;;;;;;;35.60;4.78;;;10.30;99.90;;;;;;5097063;28;20091;-57
2024/01/24 07:09:16;;;;;;;34.85;5.65;;;10.30;99.90;;;;;;5096822;28;20024;-56
2024/01/24 07:11:41;;;;;;;30.67;4.85;;;10.30;99.90;;;;;;5096766;28;20059;-57
2024/01/24 07:14:07;;;;;;;43.40;3.97;;;10.30;99.90;;;;;;5096505;28;20103;-56
2024/01/24 07:16:33;;;;;;;24.70;4.18;;;10.40;99.90;;;;;;5096722;28;20028;-57
2024/01/24 07:18:58;;;;;;;32.17;3.95;;;10.30;99.90;;;;;;5096570;28;20039;-61
2024/01/24 07:21:25;;;;;;;21.33;5.03;;;10.30;99.90;;;;;;5096605;28;20027;-52
2024/01/24 07:23:50;;;;;;;33.95;5.13;;;10.30;99.90;;;;;;5096717;28;20361;-55
2024/01/24 07:26:16;;;;;;;37.13;6.22;;;10.30;99.90;;;;;;5096374;28;20027;-55
2024/01/24 07:28:42;;;;;;;28.38;4.75;;;10.20;99.90;;;;;;5096468;28;20479;-55
2024/01/24 07:31:07;;;;;;;25.65;4.15;;;10.20;99.90;;;;;;5096395;28;20085;-56
2024/01/24 07:33:33;;;;;;;29.05;4.60;;;10.20;99.90;;;;;;5096393;28;20024;-56
2024/01/24 07:35:59;;;;;;;30.27;4.45;;;10.20;99.90;;;;;;5096357;28;20020;-56
2024/01/24 07:38:24;;;;;;;47.08;4.97;;;10.20;99.90;;;;;;5096248;28;20032;-54
2024/01/24 07:40:50;;;;;;;26.52;5.43;;;10.20;99.90;;;;;;5094846;28;20127;-55
2024/01/24 07:43:16;;;;;;;29.65;4.00;;;10.10;99.90;;;;;;5096177;28;20021;-56
2024/01/24 07:45:41;;;;;;;37.72;6.90;;;10.10;99.90;;;;;;5095799;28;20085;-55
2024/01/24 07:48:07;;;;;;;37.88;4.78;;;10.10;99.90;;;;;;5096157;28;20021;-57
2024/01/24 07:50:33;;;;;;;35.60;4.88;;;10.10;99.90;;;;;;5096032;28;20532;-54
2024/01/24 07:52:59;;;;;;;23.48;3.08;;;10.10;99.90;;;;;;5096287;28;20039;-53
2024/01/24 07:55:25;;;;;;;34.53;4.55;;;10.20;99.90;;;;;;5095904;28;20027;-56
2024/01/24 07:57:50;;;;;;;27.45;5.60;;;10.20;99.90;;;;;;5095830;28;20036;-56
2024/01/24 08:00:16;;;;;;;36.47;4.63;;;10.10;99.90;;;;;;5095989;28;20061;-57
2024/01/24 08:02:44;;;;;;;32.67;5.13;;;10.10;99.90;;;;;;5095654;28;20020;-55
2024/01/24 08:05:12;;;;;;;20.42;3.63;;;10.10;99.90;;;;;;5095989;28;20054;-58
2024/01/24 08:07:42;;;;;;;31.38;5.00;;;10.10;99.90;;;;;;5095987;28;20388;-53
2024/01/24 08:10:11;;;;;;;28.45;4.40;;;10.20;99.90;;;;;;5095560;28;20020;-54
2024/01/24 08:12:38;;;;;;;35.17;6.22;;;10.10;99.90;;;;;;5095540;28;20020;-57
2024/01/24 08:15:07;;;;;;;33.78;5.03;;;10.10;99.90;;;;;;5095412;28;20408;-54
2024/01/24 08:17:34;;;;;;;32.70;5.95;;;10.20;99.90;;;;;;5095571;28;20020;-43
2024/01/24 08:20:02;;;;;;;37.92;4.72;;;10.20;99.90;;;;;;5095793;28;20362;-43
2024/01/24 08:22:29;;;;;;;28.08;4.20;;;10.20;99.90;;;;;;5095666;28;20464;-41
2024/01/24 08:24:55;;;;;;;34.60;4.90;;;10.20;99.90;;;;;;5095502;28;20012;-41
2024/01/24 08:27:21;;;;;;;31.15;4.45;;;10.20;99.90;;;;;;5095072;28;20020;-40
2024/01/24 08:29:47;;;;;;;26.90;3.83;;;10.30;99.90;;;;;;5095314;28;20434;-48
2024/01/24 08:32:12;;;;;;;37.35;4.82;;;10.30;99.90;;;;;;5094010;28;20442;-42
2024/01/24 08:34:38;;;;;;;42.92;4.30;;;10.40;99.90;;;;;;5093919;28;20028;-41
2024/01/24 08:37:05;;;;;;;36.55;4.50;;;10.40;99.90;;;;;;5093864;28;20377;-41
2024/01/24 08:39:31;;;;;;;29.17;3.83;;;10.50;99.90;;;;;;5095022;28;20020;-46
2024/01/24 08:41:57;;;;;;;30.50;6.07;;;10.40;99.90;;;;;;5095150;28;20069;-42
2024/01/24 08:44:22;;;;;;;25.75;3.67;;;10.40;99.90;;;;;;5095029;28;20415;-45
2024/01/24 08:46:50;;;;;;;40.13;6.00;;;10.40;99.90;;;;;;5094895;28;20103;-42
2024/01/24 08:49:16;;;;;;;44.95;6.40;;;10.30;99.90;;;;;;5095108;28;20440;-40
2024/01/24 08:51:42;;;;;;;32.83;4.35;;;10.30;99.90;;;;;;5094947;28;20051;-41
2024/01/24 08:54:08;;;;;;;30.95;4.78;;;10.40;99.90;;;;;;5094912;28;20036;-41
2024/01/24 08:56:34;;;;;;;47.50;4.53;;;10.40;99.90;;;;;;5094638;28;20052;-40
2024/01/24 08:58:59;;;;;;;30.58;5.47;;;10.40;99.90;;;;;;5094719;28;20032;-43
2024/01/24 09:01:25;;;;;;;29.75;4.47;;;10.50;99.90;;;;;;5094711;28;20054;-41
2024/01/24 09:03:51;;;;;;;25.63;4.75;;;10.50;99.90;;;;;;5094576;28;20034;-74
2024/01/24 09:06:18;;;;;;;40.22;5.47;;;10.50;99.90;;;;;;5094514;28;20013;-40
2024/01/24 09:08:44;;;;;;;32.93;5.23;;;10.50;99.90;;;;;;5094554;28;20021;-55
2024/01/24 09:11:10;;;;;;;31.98;6.18;;;10.50;99.90;;;;;;5094705;28;20074;-55
2024/01/24 09:13:35;;;;;;;39.22;7.15;;;10.60;99.90;;;;;;5094484;28;20435;-54
2024/01/24 09:16:01;;;;;;;28.15;3.80;;;10.60;99.90;;;;;;5094222;28;20432;-54
2024/01/24 09:18:27;;;;;;;47.13;5.47;;;10.60;99.90;;;;;;5094273;28;20476;-56
2024/01/24 09:20:53;;;;;;;33.85;4.93;;;10.60;99.90;;;;;;5094372;28;20031;-54
2024/01/24 09:23:18;;;;;;;28.65;4.35;;;10.60;99.90;;;;;;5093606;28;20027;-57
2024/01/24 09:25:44;;;;;;;32.60;3.95;;;10.60;99.90;;;;;;5094148;28;20125;-52
2024/01/24 09:28:10;;;;;;;38.25;3.97;;;10.60;99.90;;;;;;5094290;28;20459;-43
2024/01/24 09:30:36;;;;;;;42.78;5.93;;;10.60;99.90;;;;;;5094097;28;20065;-46
2024/01/24 09:33:03;;;;;;;24.83;5.10;;;10.60;99.90;;;;;;5075893;28;20032;-41
2024/01/24 09:35:29;;;;;;;30.52;5.07;;;10.60;99.90;;;;;;5093984;28;20031;-44
2024/01/24 09:37:55;;;;;;;44.75;5.80;;;10.60;99.90;;;;;;5092680;28;20115;-44
2024/01/24 09:40:21;;;;;;;28.15;4.18;;;10.60;99.90;;;;;;5094314;28;20024;-41
2024/01/24 09:42:47;;;;;;;28.73;4.10;;;10.70;99.90;;;;;;5093858;28;20051;-42
2024/01/24 09:45:17;;;;;;;38.67;3.47;;;10.70;99.90;;;;;;5093926;28;20059;-41
2024/01/24 09:47:47;;;;;;;32.90;5.30;;;10.70;99.90;;;;;;5093805;28;20025;-54
2024/01/24 09:50:13;;;;;;;24.55;4.70;;;10.70;99.90;;;;;;5093701;28;20507;-48
2024/01/24 09:52:41;;;;;;;27.48;3.58;;;10.70;99.90;;;;;;5092442;28;20426;-67
2024/01/24 09:55:09;;;;;;;41.78;6.10;;;10.70;99.90;;;;;;5093714;28;20020;-40
2024/01/24 09:57:35;;;;;;;;;;;10.80;99.90;;;;;;5094317;28;20024;-41
2024/01/24 10:00:00;;;;;;;29.10;4.35;;;10.80;99.90;;;;;;5092218;28;20372;-46
2024/01/24 10:02:27;;;;;;;33.42;4.72;;;10.90;99.90;;;;;;5093787;28;20024;-42
2024/01/24 10:04:53;;;;;;;26.40;4.15;;;11.00;99.90;;;;;;5093413;28;20484;-39
2024/01/24 10:07:19;;;;;;;39.78;4.32;;;11.00;99.90;;;;;;5093702;28;20523;-40
2024/01/24 10:09:46;;;;;;;42.55;5.57;;;11.00;99.90;;;;;;5093406;28;20073;-43
2024/01/24 10:12:12;;;;;;;17.17;3.37;;;11.00;99.90;;;;;;5093409;28;20024;-42
2024/01/24 10:14:40;;;;;;;31.23;3.42;;;11.10;99.90;;;;;;5093155;28;20381;-45
2024/01/24 10:17:09;;;;;;;37.63;4.55;;;11.20;99.90;;;;;;5093599;28;20027;-41
2024/01/24 10:19:36;;;;;;;33.08;4.03;;;11.20;99.90;;;;;;5093226;28;20481;-47
2024/01/24 10:22:03;;;;;;;33.00;4.80;;;11.20;99.90;;;;;;5093261;28;20081;-42
2024/01/24 10:24:31;;;;;;;36.78;7.07;;;11.20;99.90;;;;;;5093204;28;20038;-42
2024/01/24 10:26:57;;;;;;;29.83;5.22;;;11.10;99.90;;;;;;5093300;28;20089;-40
2024/01/24 10:29:22;;;;;;;33.28;4.78;;;11.10;99.90;;;;;;5091778;28;20028;-43
2024/01/24 10:31:55;;;;;;;37.72;5.05;;;11.20;99.90;;;;;;5093057;28;20028;-43
2024/01/24 10:34:25;;;;;;;31.73;5.18;;;11.10;99.90;;;;;;5093030;28;20039;-43
2024/01/24 10:36:51;;;;;;;20.13;4.85;;;11.10;99.90;;;;;;5093432;28;20480;-56
2024/01/24 10:39:18;;;;;;;20.83;3.92;;;11.10;99.90;;;;;;5093150;28;20472;-57
2024/01/24 10:41:51;;;;;;;46.88;4.50;;;11.00;99.90;;;;;;5092956;28;20503;-55
2024/01/24 10:44:17;;;;;;;30.15;4.90;;;11.10;99.90;;;;;;5093097;28;20395;-58
2024/01/24 10:46:43;;;;;;;29.50;4.05;;;11.10;99.90;;;;;;5092986;28;20488;-56
2024/01/24 10:49:12;;;;;;;32.28;4.47;;;11.10;99.90;;;;;;5092855;28;20024;-58
2024/01/24 10:51:38;;;;;;;34.10;4.95;;;11.10;99.90;;;;;;5091977;28;20024;-57
2024/01/24 10:54:05;;;;;;;38.47;5.03;;;11.10;99.90;;;;;;5092980;28;20107;-55
2024/01/24 10:56:32;;;;;;;25.38;4.22;;;11.10;99.90;;;;;;5092812;28;20500;-57
2024/01/24 10:59:03;;;;;;;23.75;4.22;;;11.00;99.90;;;;;;5092700;28;20024;-58
2024/01/24 11:01:29;;;;;;;27.45;4.03;;;11.00;99.90;;;;;;5091782;28;20024;-65
2024/01/24 11:03:56;;;;;;;20.95;5.30;;;11.00;99.90;;;;;;5092699;28;20039;-58
2024/01/24 11:06:24;;;;;;;33.38;6.00;;;11.00;99.90;;;;;;5092683;28;20487;-56
2024/01/24 11:09:08;;;;;;;24.25;5.15;;;11.00;99.90;;;;;;5092630;28;20028;-56
2024/01/24 11:11:35;;;;;;;37.08;5.50;;;11.00;99.90;;;;;;5092983;28;20107;-73
2024/01/24 11:14:02;;;;;;;24.87;4.03;;;11.00;99.90;;;;;;5092610;28;20085;-56
2024/01/24 11:16:34;;;;;;;29.70;4.32;;;11.20;99.90;;;;;;5092453;28;20080;-55
2024/01/24 11:19:22;;;;;;;31.25;4.85;;;11.10;99.90;;;;;;5092510;28;20032;-55
2024/01/24 11:21:49;;;;;;;33.35;4.55;;;11.00;99.90;;;;;;5092436;28;20052;-58
2024/01/24 11:24:39;;;;;;;43.40;5.55;;;11.10;99.90;;;;;;5092451;28;20024;-58
2024/01/24 11:27:25;;;;;;;39.25;4.30;;;11.10;99.90;;;;;;5092619;28;20055;-55
2024/01/24 11:29:51;;;;;;;28.58;4.10;;;11.00;99.90;;;;;;5092744;28;20476;-55
2024/01/24 11:32:50;;;;;;;30.48;3.65;;;11.00;99.90;;;;;;5092396;28;20388;-57
2024/01/24 11:35:38;;;;;;;35.25;4.68;;;11.10;99.90;;;;;;5092274;28;20036;-55
2024/01/24 11:38:26;;;;;;;28.55;3.55;;;11.00;99.90;;;;;;5092396;28;20034;-56
2024/01/24 11:41:02;;;;;;;36.17;4.82;;;11.00;99.90;;;;;;5092267;28;20067;-57
2024/01/24 11:43:33;;;;;;;27.98;3.20;;;10.90;99.90;;;;;;5092675;28;20055;-56
2024/01/24 11:46:03;;;;;;;19.88;3.58;;;11.00;99.90;;;;;;5093435;28;20035;-55
2024/01/24 11:48:34;;;;;;;26.88;4.57;;;11.10;99.90;;;;;;5096391;28;20489;-43
2024/01/24 11:51:18;;;;;;;29.98;4.45;;;11.10;99.90;;;;;;5096365;28;20422;-43
2024/01/24 11:53:44;;;;;;;15.65;3.00;;;11.30;99.90;;;;;;5096055;28;20488;-46
2024/01/24 11:56:17;;;;;;;14.43;2.70;;;11.30;99.90;;;;;;5094608;28;20028;-43
2024/01/24 11:58:43;;;;;;;22.75;2.97;;;11.30;99.90;;;;;;5096136;28;20435;-42
2024/01/24 12:01:10;;;;;;;21.33;3.80;;;11.40;99.90;;;;;;5095904;28;20028;-43
2024/01/24 12:03:36;;;;;;;34.38;4.68;;;11.40;99.90;;;;;;5096113;28;20492;-42
2024/01/24 12:06:04;;;;;;;25.33;4.28;;;11.40;99.90;;;;;;5096094;28;20016;-44
2024/01/24 12:08:30;;;;;;;23.65;2.50;;;11.40;99.90;;;;;;5094506;28;20032;-39
2024/01/24 12:10:56;;;;;;;18.13;3.42;;;11.40;99.90;;;;;;5095664;28;20529;-42
2024/01/24 12:13:27;;;;;;;19.65;3.20;;;11.40;99.90;;;;;;5094425;28;20032;-41
2024/01/24 12:15:58;;;;;;;20.25;3.63;;;11.40;99.90;;;;;;5094217;28;20499;-44
2024/01/24 12:18:25;;;;;;;19.58;3.90;;;11.50;99.90;;;;;;5095487;28;20028;-43
2024/01/24 12:20:54;;;;;;;19.52;3.60;;;11.30;99.90;;;;;;5095475;28;20024;-42
2024/01/24 12:23:21;;;;;;;27.52;3.22;;;11.30;99.90;;;;;;5095392;28;20020;-40
2024/01/24 12:25:47;;;;;;;34.55;3.70;;;11.40;99.90;;;;;;5095622;28;20495;-44
2024/01/24 12:28:13;;;;;;;19.27;3.63;;;11.30;99.90;;;;;;5094140;28;20552;-44
2024/01/24 12:30:46;;;;;;;23.17;3.08;;;11.30;99.90;;;;;;5095644;28;20084;-43
2024/01/24 12:33:14;;;;;;;20.70;4.05;;;11.20;99.90;;;;;;5095627;28;20766;-42
2024/01/24 12:35:45;;;;;;;18.55;3.97;;;11.20;99.90;;;;;;5095168;28;20036;-42
2024/01/24 12:38:11;;;;;;;20.27;2.92;;;11.30;99.90;;;;;;5095342;28;20028;-39